Time;durP1;ratioP1;P1;durP2;ratioP2;P2;SDS_P1;SDS_P2;PMS_P1;PMS_P2;Temp;Humidity;BMP_temperature;BMP_pressure;BME280_temperature;BME280_humidity;BME280_pressure;Samples;Min_cycle;Max_cycle;Signal;HPM_P1;HPM_P2
2021/01/15 00:01:41;;;;;;;28.50;11.55;;;;;;;-5.59;85.35;98255.67;1819269;78;21215;-84
2021/01/15 00:04:08;;;;;;;23.73;10.53;;;;;;;-5.61;85.08;98246.27;1795822;80;20939;-84
2021/01/15 00:06:36;;;;;;;25.75;10.28;;;;;;;-5.63;85.02;98255.87;1797060;78;20993;-84
2021/01/15 00:09:05;;;;;;;28.55;10.88;;;;;;;-5.62;85.09;98260.16;1783948;79;21107;-87
2021/01/15 00:11:33;;;;;;;25.50;10.13;;;;;;;-5.60;85.08;98266.61;1783823;80;21194;-87
2021/01/15 00:14:02;;;;;;;35.23;11.18;;;;;;;-5.60;84.88;98264.74;1783950;80;22291;-86
2021/01/15 00:16:32;;;;;;;21.80;8.53;;;;;;;-5.59;84.74;98268.23;1783837;80;21103;-86
2021/01/15 00:19:01;;;;;;;23.15;9.18;;;;;;;-5.57;84.75;98266.93;1792368;79;21489;-90
2021/01/15 00:21:32;;;;;;;26.23;8.70;;;;;;;-5.62;84.29;98269.52;1784073;79;21085;-89
2021/01/15 00:24:02;;;;;;;24.90;9.65;;;;;;;-5.69;84.05;98271.54;1783717;80;21058;-88
2021/01/15 00:26:30;;;;;;;26.23;10.32;;;;;;;-5.76;84.11;98273.03;1753482;80;21528;-89
2021/01/15 00:28:58;;;;;;;29.12;11.00;;;;;;;-5.79;84.22;98276.74;1783947;80;21010;-88
2021/01/15 00:31:32;;;;;;;18.87;8.05;;;;;;;-5.81;84.38;98276.98;1783820;79;21584;-84
2021/01/15 00:33:59;;;;;;;;;;;;;;;-5.84;83.78;98274.79;1786625;80;21069;-83
2021/01/15 00:36:27;;;;;;;28.05;10.82;;;;;;;-5.90;83.76;98287.81;1783987;80;20151;-83
2021/01/15 00:38:54;;;;;;;27.02;9.40;;;;;;;-5.96;84.33;98290.10;1783990;79;21381;-83
2021/01/15 00:41:22;;;;;;;31.85;9.68;;;;;;;-5.94;84.54;98285.86;1783838;80;21089;-83
2021/01/15 00:43:49;;;;;;;25.02;9.48;;;;;;;-5.96;84.38;98288.77;1784079;80;20895;-85
2021/01/15 00:46:31;;;;;;;22.98;9.28;;;;;;;-5.97;84.28;98283.66;1783936;80;21164;-83
2021/01/15 00:48:47;;;;;;;26.87;9.55;;;;;;;-5.96;84.29;98288.77;1781844;80;21562;-84
2021/01/15 00:51:15;;;;;;;31.12;10.45;;;;;;;-5.94;84.48;98291.20;1784071;80;21376;-81
2021/01/15 00:53:42;;;;;;;23.07;9.95;;;;;;;-5.91;84.41;98294.20;1784057;80;21077;-81
2021/01/15 00:56:10;;;;;;;24.25;9.40;;;;;;;-5.91;83.88;98292.05;1784216;80;21045;-81
2021/01/15 00:58:38;;;;;;;30.72;11.10;;;;;;;-5.96;84.06;98292.77;1784234;80;21552;-82
2021/01/15 01:01:06;;;;;;;22.80;10.20;;;;;;;-5.93;84.40;98291.48;1784061;79;21132;-84
2021/01/15 01:03:35;;;;;;;30.68;10.85;;;;;;;-5.87;84.37;98294.50;1782823;80;21279;-84
2021/01/15 01:06:10;;;;;;;22.60;8.88;;;;;;;-5.88;84.12;98296.37;1784071;79;20930;-86
2021/01/15 01:08:39;;;;;;;25.70;10.78;;;;;;;-5.85;84.22;98294.55;1784231;80;21528;-86
2021/01/15 01:11:18;;;;;;;25.08;9.08;;;;;;;-5.83;84.30;98299.66;1784107;80;21049;-85
2021/01/15 01:13:47;;;;;;;27.98;10.03;;;;;;;-5.81;84.09;98298.37;1784161;80;21140;-91
2021/01/15 01:16:15;;;;;;;21.00;8.75;;;;;;;-5.81;83.78;98293.55;1784143;80;21415;-90
2021/01/15 01:18:43;;;;;;;24.70;9.90;;;;;;;-5.86;83.47;98298.27;1784179;80;21496;-90
2021/01/15 01:21:11;;;;;;;24.80;9.93;;;;;;;-5.90;83.77;98299.02;1753737;80;21474;-90
2021/01/15 01:23:39;;;;;;;22.02;9.35;;;;;;;-5.90;83.96;98299.83;1784135;80;21112;-91
2021/01/15 01:26:07;;;;;;;21.82;9.45;;;;;;;-5.89;83.77;98311.34;1784202;80;21572;-91
2021/01/15 01:28:34;;;;;;;22.35;8.95;;;;;;;-5.90;83.91;98311.05;1784012;80;21364;-91
2021/01/15 01:31:02;;;;;;;26.48;9.90;;;;;;;-5.86;84.06;98302.81;1784035;80;21037;-90
2021/01/15 01:33:29;;;;;;;26.55;10.00;;;;;;;-5.86;84.55;98300.95;1784080;80;21076;-85
2021/01/15 01:35:57;;;;;;;24.47;9.80;;;;;;;-5.81;84.68;98308.25;1784098;80;21580;-86
2021/01/15 01:38:25;;;;;;;21.57;9.33;;;;;;;-5.81;84.37;98305.58;1784122;80;21093;-86
2021/01/15 01:40:53;;;;;;;23.65;8.60;;;;;;;-5.84;84.50;98312.73;1784093;80;21322;-87
2021/01/15 01:43:20;;;;;;;19.82;8.28;;;;;;;-5.88;84.45;98317.75;1784040;80;21065;-85
2021/01/15 01:45:47;;;;;;;20.52;8.68;;;;;;;-5.95;83.82;98320.31;1784210;80;21600;-86
2021/01/15 01:48:16;;;;;;;20.48;8.08;;;;;;;-6.05;83.60;98323.08;1784092;80;21140;-86
2021/01/15 01:50:43;;;;;;;20.00;7.67;;;;;;;-6.08;83.53;98326.22;1784146;79;20931;-85
2021/01/15 01:53:13;;;;;;;21.02;8.48;;;;;;;-6.09;83.68;98327.27;1784162;80;21343;-86
2021/01/15 01:55:43;;;;;;;26.02;10.18;;;;;;;-6.09;83.72;98345.16;1784018;80;20950;-91
2021/01/15 01:58:11;;;;;;;24.70;9.95;;;;;;;-6.14;83.49;98343.20;1784174;80;21069;-90
2021/01/15 02:00:39;;;;;;;18.17;8.23;;;;;;;-6.17;83.58;98337.00;1753562;80;21132;-89
2021/01/15 02:03:07;;;;;;;22.27;8.50;;;;;;;-6.17;83.45;98340.19;1783977;80;21109;-88
2021/01/15 02:05:35;;;;;;;17.92;7.40;;;;;;;-6.25;82.88;98336.56;1784152;80;22370;-88
2021/01/15 02:08:03;;;;;;;18.00;8.13;;;;;;;-6.29;82.80;98336.73;1793810;80;20970;-90
2021/01/15 02:11:08;;;;;;;18.07;8.38;;;;;;;-6.34;82.54;98338.26;1791917;79;21127;-90
2021/01/15 02:14:05;;;;;;;22.73;8.18;;;;;;;-6.39;82.79;98340.86;1784047;80;21588;-91
2021/01/15 02:16:32;;;;;;;22.85;8.40;;;;;;;-6.44;82.75;98335.94;1784092;80;21481;-90
2021/01/15 02:19:37;;;;;;;20.57;8.83;;;;;;;-6.46;82.52;98348.70;1784126;80;21592;-88
2021/01/15 02:22:36;;;;;;;17.73;7.17;;;;;;;-6.53;82.57;98344.02;1784064;80;20998;-88
2021/01/15 02:25:35;;;;;;;22.77;8.38;;;;;;;-6.56;83.16;98341.30;1784061;80;21077;-88
2021/01/15 02:28:31;;;;;;;18.77;7.42;;;;;;;-6.58;83.24;98346.58;1784036;80;21061;-88
2021/01/15 02:31:07;;;;;;;17.85;7.78;;;;;;;-6.58;83.43;98343.39;1784162;80;21121;-83
2021/01/15 02:34:25;;;;;;;20.25;7.70;;;;;;;-6.57;84.17;98349.53;1795229;79;21084;-84
2021/01/15 02:37:24;;;;;;;22.50;8.45;;;;;;;-6.57;84.29;98349.53;1795279;80;21465;-83
2021/01/15 02:40:06;;;;;;;22.60;9.00;;;;;;;-6.59;83.72;98352.96;1795259;80;20888;-81
2021/01/15 02:42:39;;;;;;;25.92;9.78;;;;;;;-6.67;83.96;98354.94;1777946;80;21054;-81
2021/01/15 02:45:09;;;;;;;20.43;7.83;;;;;;;-6.68;84.21;98357.33;1795107;79;20998;-81
2021/01/15 02:47:54;;;;;;;19.15;8.28;;;;;;;-6.73;83.81;98361.22;1795290;80;21190;-81
2021/01/15 02:50:24;;;;;;;21.57;9.28;;;;;;;-6.75;84.02;98358.48;1795294;80;21489;-80
2021/01/15 02:52:51;;;;;;;18.95;7.00;;;;;;;-6.72;84.33;98361.50;1795254;80;20934;-81
2021/01/15 02:55:19;;;;;;;25.15;9.78;;;;;;;-6.62;84.54;98362.77;1795259;80;21105;-83
2021/01/15 02:57:46;;;;;;;22.62;8.95;;;;;;;-6.60;84.43;98364.16;1795229;80;20982;-83
2021/01/15 03:00:17;;;;;;;23.50;9.63;;;;;;;-6.60;84.24;98366.84;1795218;80;22586;-85
2021/01/15 03:03:05;;;;;;;30.48;10.53;;;;;;;-6.61;84.64;98370.55;1792072;79;21487;-85
2021/01/15 03:05:50;;;;;;;20.05;8.60;;;;;;;-6.59;84.62;98371.65;1798372;79;21464;-85
2021/01/15 03:08:18;;;;;;;34.85;10.93;;;;;;;-6.67;84.16;98372.30;1798355;79;21125;-84
2021/01/15 03:10:47;;;;;;;39.75;10.28;;;;;;;-6.78;83.36;98367.77;1798347;79;21122;-84
2021/01/15 03:13:14;;;;;;;31.27;10.75;;;;;;;-6.84;83.92;98381.23;1798266;79;21371;-84
2021/01/15 03:15:42;;;;;;;32.30;10.70;;;;;;;-6.87;84.08;98380.36;1798206;79;20967;-84
2021/01/15 03:18:10;;;;;;;83.07;15.80;;;;;;;-6.86;84.31;98375.31;1791536;79;21074;-82
2021/01/15 03:20:37;;;;;;;76.28;16.20;;;;;;;-6.81;84.38;98381.58;1720465;79;20952;-84
2021/01/15 03:23:05;;;;;;;72.92;16.95;;;;;;;-6.79;84.50;98372.81;1769332;79;21019;-84
2021/01/15 03:25:32;;;;;;;47.05;11.30;;;;;;;-6.81;84.53;98374.09;1798253;79;21388;-80
2021/01/15 03:28:00;;;;;;;79.40;18.73;;;;;;;-6.84;84.54;98375.38;1798128;79;21011;-82
2021/01/15 03:30:29;;;;;;;85.53;19.02;;;;;;;-6.86;84.35;98374.79;1798267;79;20991;-83
2021/01/15 03:33:00;;;;;;;54.93;13.28;;;;;;;-6.87;84.98;98373.16;1798235;79;21529;-83
2021/01/15 03:35:29;;;;;;;49.73;12.18;;;;;;;-6.88;84.81;98376.06;1798410;79;21067;-86
2021/01/15 03:38:04;;;;;;;45.45;11.95;;;;;;;-6.94;84.79;98377.83;1798184;79;22367;-84
2021/01/15 03:40:38;;;;;;;28.98;9.35;;;;;;;-6.94;85.08;98383.69;1794923;79;21082;-84
2021/01/15 03:43:15;;;;;;;21.75;8.78;;;;;;;-6.91;85.35;98388.02;1798228;79;21115;-84
2021/01/15 03:45:53;;;;;;;20.68;7.28;;;;;;;-6.85;85.69;98387.61;1798264;79;20948;-85
2021/01/15 03:48:21;;;;;;;23.55;6.42;;;;;;;-6.86;84.58;98393.47;1821369;78;21088;-85
2021/01/15 03:50:50;;;;;;;19.52;6.75;;;;;;;-6.92;84.40;98398.39;1812467;79;21420;-83
2021/01/15 03:53:18;;;;;;;19.77;7.72;;;;;;;-6.96;84.23;98395.12;1845520;77;20970;-82
2021/01/15 03:55:45;;;;;;;19.37;7.53;;;;;;;-7.02;83.78;98396.85;1812483;79;21006;-80
2021/01/15 03:58:13;;;;;;;19.05;6.65;;;;;;;-7.12;83.55;98409.94;1812428;79;21065;-81
2021/01/15 04:00:40;;;;;;;20.08;6.90;;;;;;;-7.18;83.93;98401.00;1812374;78;21065;-86
2021/01/15 04:03:08;;;;;;;22.62;8.18;;;;;;;-7.17;84.10;98411.14;1809045;79;21489;-88
2021/01/15 04:05:37;;;;;;;20.43;7.05;;;;;;;-7.16;83.94;98412.25;1806352;79;20951;-84
2021/01/15 04:08:05;;;;;;;21.17;7.20;;;;;;;-7.15;83.71;98422.40;1806465;79;21041;-84
2021/01/15 04:10:34;;;;;;;19.60;6.28;;;;;;;-7.18;83.47;98416.19;1806439;79;21168;-86
2021/01/15 04:13:02;;;;;;;45.88;10.28;;;;;;;-7.20;83.81;98420.42;1806457;79;21489;-86
2021/01/15 04:15:30;;;;;;;37.63;9.20;;;;;;;-7.25;83.53;98425.63;1822208;78;21814;-88
2021/01/15 04:18:01;;;;;;;25.00;7.95;;;;;;;-7.37;83.06;98429.59;1806386;79;21552;-87
2021/01/15 04:20:29;;;;;;;26.97;8.25;;;;;;;-7.50;83.20;98432.96;1839421;78;20903;-83
2021/01/15 04:22:57;;;;;;;28.98;7.90;;;;;;;-7.60;84.00;98425.54;1806511;79;20983;-81
2021/01/15 04:25:25;;;;;;;27.02;9.05;;;;;;;-7.60;84.39;98438.86;1794270;79;21168;-82
2021/01/15 04:27:53;;;;;;;27.20;9.95;;;;;;;-7.57;84.45;98440.27;1796102;80;21127;-80
2021/01/15 04:30:21;;;;;;;27.42;7.90;;;;;;;-7.60;84.04;98444.20;1784127;80;20954;-82
2021/01/15 04:32:48;;;;;;;26.80;8.45;;;;;;;-7.61;84.11;98437.76;1784141;80;21551;-79
2021/01/15 04:35:18;;;;;;;19.77;7.45;;;;;;;-7.61;84.32;98445.75;1784144;80;21161;-82
2021/01/15 04:37:47;;;;;;;26.60;7.80;;;;;;;-7.58;84.47;98445.30;1784267;80;21148;-87
2021/01/15 04:40:15;;;;;;;23.60;8.00;;;;;;;-7.54;84.51;98450.48;1784177;80;21568;-81
2021/01/15 04:42:45;;;;;;;25.00;8.88;;;;;;;-7.47;84.66;98457.31;1784110;80;21124;-83
2021/01/15 04:45:14;;;;;;;22.85;7.78;;;;;;;-7.40;84.45;98461.22;1784213;80;21040;-80
2021/01/15 04:47:46;;;;;;;24.98;8.30;;;;;;;-7.41;83.78;98460.93;1784238;80;21069;-85
2021/01/15 04:50:17;;;;;;;24.57;8.45;;;;;;;-7.47;83.37;98464.50;1784460;80;21061;-85
2021/01/15 04:52:49;;;;;;;25.20;7.40;;;;;;;-7.54;83.25;98456.63;1753729;80;22086;-83
2021/01/15 04:55:25;;;;;;;27.90;9.30;;;;;;;-7.56;83.16;98461.88;1784379;80;20951;-85
2021/01/15 04:57:54;;;;;;;33.73;10.80;;;;;;;-7.66;82.62;98461.90;1784221;80;20930;-88
2021/01/15 05:00:25;;;;;;;40.80;10.60;;;;;;;-7.76;82.83;98466.13;1784135;80;20931;-85
2021/01/15 05:02:53;;;;;;;22.50;8.08;;;;;;;-7.83;82.89;98460.07;1788347;79;21057;-85
2021/01/15 05:05:27;;;;;;;18.98;8.28;;;;;;;-7.93;83.14;98459.78;1798544;79;22054;-85
2021/01/15 05:08:14;;;;;;;17.40;7.05;;;;;;;-7.97;82.84;98463.93;1798366;79;21061;-84
2021/01/15 05:10:50;;;;;;;19.67;7.50;;;;;;;-8.03;82.49;98473.62;1799414;78;21519;-84
2021/01/15 05:13:18;;;;;;;17.87;7.42;;;;;;;-8.06;82.61;98474.88;1806542;78;21005;-83
2021/01/15 05:15:49;;;;;;;18.23;7.17;;;;;;;-8.06;82.25;98470.07;1811371;79;21021;-83
2021/01/15 05:18:19;;;;;;;17.12;7.25;;;;;;;-8.10;81.95;98474.24;1798395;79;22079;-83
2021/01/15 05:20:47;;;;;;;18.12;7.47;;;;;;;-8.15;81.34;98484.23;1798380;79;21136;-85
2021/01/15 05:23:15;;;;;;;19.52;6.80;;;;;;;-8.20;81.71;98486.73;1797312;78;21186;-83
2021/01/15 05:25:45;;;;;;;18.82;6.78;;;;;;;-8.24;81.40;98492.72;1797920;79;21072;-83
2021/01/15 05:28:21;;;;;;;21.48;8.13;;;;;;;-8.28;81.05;98495.53;1798187;79;21476;-83
2021/01/15 05:30:58;;;;;;;23.07;8.83;;;;;;;-8.32;80.98;98487.72;1798078;79;21378;-84
2021/01/15 05:33:27;;;;;;;17.37;7.47;;;;;;;-8.32;80.61;98499.15;1798427;78;21111;-85
2021/01/15 05:35:54;;;;;;;14.40;6.78;;;;;;;-8.32;79.79;98505.02;1811162;79;21627;-85
2021/01/15 05:38:23;;;;;;;20.75;8.23;;;;;;;-8.34;79.55;98507.91;1817686;79;21069;-84
2021/01/15 05:40:57;;;;;;;19.30;7.20;;;;;;;-8.32;79.57;98499.70;1817648;78;21522;-80
2021/01/15 05:43:32;;;;;;;18.23;6.92;;;;;;;-8.34;79.30;98499.40;1817583;79;22148;-78
2021/01/15 05:46:21;;;;;;;25.82;9.35;;;;;;;-8.35;79.10;98499.62;1817616;79;21022;-78
2021/01/15 05:48:53;;;;;;;24.82;8.30;;;;;;;-8.41;79.00;98511.14;1817626;79;20982;-85
2021/01/15 05:51:29;;;;;;;24.05;7.60;;;;;;;-8.42;79.55;98517.50;1817693;79;21009;-83
2021/01/15 05:53:57;;;;;;;21.65;8.33;;;;;;;-8.36;80.03;98518.77;1817829;79;21571;-83
2021/01/15 05:56:28;;;;;;;20.77;8.43;;;;;;;-8.32;79.66;98520.99;1817605;79;21148;-80
2021/01/15 05:59:15;;;;;;;21.57;8.73;;;;;;;-8.40;79.10;98526.08;1816317;79;21042;-87
2021/01/15 06:01:54;;;;;;;24.35;8.33;;;;;;;-8.40;79.61;98534.88;1817578;79;21164;-84
2021/01/15 06:04:36;;;;;;;19.77;7.97;;;;;;;-8.30;80.11;98536.20;1820009;78;21053;-83
2021/01/15 06:07:12;;;;;;;28.27;9.98;;;;;;;-8.26;80.02;98539.53;1819505;78;21108;-82
2021/01/15 06:09:41;;;;;;;28.65;9.85;;;;;;;-8.30;79.97;98545.52;1809738;78;21379;-83
2021/01/15 06:12:10;;;;;;;38.92;11.20;;;;;;;-8.29;80.37;98549.30;1801110;79;20992;-81
2021/01/15 06:14:49;;;;;;;26.25;9.65;;;;;;;-8.31;80.29;98550.03;1801226;79;21116;-79
2021/01/15 06:17:09;;;;;;;26.52;10.38;;;;;;;-8.28;80.13;98549.59;1799621;79;21563;-82
2021/01/15 06:19:54;;;;;;;29.92;10.75;;;;;;;-8.25;79.85;98554.48;1806649;78;21152;-83
2021/01/15 06:22:32;;;;;;;29.85;10.98;;;;;;;-8.20;79.56;98557.30;1817044;78;21201;-83
2021/01/15 06:25:29;;;;;;;34.25;11.33;;;;;;;-8.17;79.26;98559.52;1811193;78;21604;-86
2021/01/15 06:27:58;;;;;;;35.78;10.68;;;;;;;-8.16;78.91;98557.16;1812885;78;21117;-81
2021/01/15 06:30:28;;;;;;;29.80;12.05;;;;;;;-8.16;78.79;98560.34;1820666;78;20998;-83
2021/01/15 06:33:14;;;;;;;29.27;10.45;;;;;;;-8.12;79.34;98566.34;1820440;78;21554;-84
2021/01/15 06:35:43;;;;;;;21.23;9.33;;;;;;;-8.10;79.12;98571.45;1790920;79;21338;-83
2021/01/15 06:38:19;;;;;;;31.62;12.07;;;;;;;-8.14;78.81;98572.92;1790314;79;21094;-87
2021/01/15 06:40:49;;;;;;;29.35;9.98;;;;;;;-8.17;78.80;98580.02;1803926;78;21035;-85
2021/01/15 06:43:29;;;;;;;30.02;10.65;;;;;;;-8.22;79.35;98579.85;1792230;79;21129;-82
2021/01/15 06:46:00;;;;;;;23.32;8.55;;;;;;;-8.23;79.78;98584.36;1798701;79;21628;-81
2021/01/15 06:48:34;;;;;;;31.33;12.10;;;;;;;-8.18;80.09;98577.86;1791136;80;21377;-78
2021/01/15 06:51:02;;;;;;;28.62;11.33;;;;;;;-8.13;80.97;98582.02;1786978;80;21518;-86
2021/01/15 06:53:32;;;;;;;31.42;10.60;;;;;;;-8.12;80.37;98581.50;1781463;80;20926;-85
2021/01/15 06:56:02;;;;;;;27.27;10.00;;;;;;;-8.18;79.42;98587.19;1803404;78;21033;-78
2021/01/15 06:58:42;;;;;;;39.15;11.35;;;;;;;-8.25;79.60;98587.76;1788784;80;21504;-83
2021/01/15 07:01:21;;;;;;;26.50;8.63;;;;;;;-8.24;80.11;98597.38;1795120;79;21107;-80
2021/01/15 07:04:16;;;;;;;22.10;8.95;;;;;;;-8.27;79.34;98589.01;1812869;79;21093;-71
2021/01/15 07:07:01;;;;;;;25.10;10.32;;;;;;;-8.37;79.15;98596.19;1800432;79;20991;-77
2021/01/15 07:09:29;;;;;;;30.27;10.05;;;;;;;-8.49;80.10;98597.40;1802614;78;21195;-76
2021/01/15 07:11:56;;;;;;;32.15;10.43;;;;;;;-8.49;80.71;98600.58;1782431;79;21450;-74
2021/01/15 07:14:27;;;;;;;29.20;9.73;;;;;;;-8.47;79.85;98603.84;1792684;78;21206;-74
2021/01/15 07:16:56;;;;;;;30.48;10.23;;;;;;;-8.46;79.59;98610.79;1809554;79;20939;-76
2021/01/15 07:19:35;;;;;;;23.95;10.28;;;;;;;-8.40;79.65;98616.58;1822279;78;21021;-74
2021/01/15 07:22:09;;;;;;;28.17;9.75;;;;;;;-8.26;79.86;98627.40;1822183;78;20946;-75
2021/01/15 07:24:40;;;;;;;24.18;8.75;;;;;;;-8.14;78.48;98623.52;1804125;79;21525;-75
2021/01/15 07:27:15;;;;;;;28.32;10.20;;;;;;;-8.18;77.03;98623.14;1797490;78;21425;-76
2021/01/15 07:29:47;;;;;;;29.35;10.25;;;;;;;-8.19;77.03;98620.69;1789807;80;20950;-78
2021/01/15 07:32:30;;;;;;;21.93;8.20;;;;;;;-8.23;76.92;98624.81;1789754;80;21158;-76
2021/01/15 07:34:59;;;;;;;29.20;8.75;;;;;;;-8.23;77.10;98632.30;1771865;78;21160;-84
2021/01/15 07:37:31;;;;;;;23.85;7.92;;;;;;;-8.18;75.87;98631.64;1788466;80;21767;-82
2021/01/15 07:40:09;;;;;;;19.90;6.87;;;;;;;-8.17;75.71;98632.75;1789611;80;21418;-76
2021/01/15 07:42:57;;;;;;;25.20;9.85;;;;;;;-8.11;75.31;98641.72;1789144;80;21576;-77
2021/01/15 07:45:33;;;;;;;26.55;10.13;;;;;;;-8.11;74.39;98639.06;1789353;80;21611;-77
2021/01/15 07:48:05;;;;;;;35.40;12.65;;;;;;;-8.21;73.56;98642.73;1789152;80;21160;-77
2021/01/15 07:50:35;;;;;;;37.10;12.10;;;;;;;-8.25;74.17;98649.00;1789386;80;21136;-74
2021/01/15 07:53:15;;;;;;;33.40;10.98;;;;;;;-8.25;74.66;98647.67;1789211;79;21423;-73
2021/01/15 07:56:00;;;;;;;28.52;10.78;;;;;;;-8.21;74.70;98656.85;1789152;80;20986;-75
2021/01/15 07:58:39;;;;;;;18.92;8.35;;;;;;;-8.08;74.81;98657.23;1789827;78;21505;-73
2021/01/15 08:01:08;;;;;;;20.90;7.83;;;;;;;-7.97;72.91;98663.19;1793561;78;20987;-80
2021/01/15 08:03:54;;;;;;;26.12;8.90;;;;;;;-8.05;71.98;98656.28;1789125;78;21237;-83
2021/01/15 08:06:22;;;;;;;26.25;9.23;;;;;;;-8.07;72.34;98661.53;1779122;80;21440;-76
2021/01/15 08:09:00;;;;;;;26.07;9.93;;;;;;;-8.05;72.24;98674.93;1778564;80;21013;-77
2021/01/15 08:11:31;;;;;;;14.18;6.72;;;;;;;-8.01;72.48;98675.31;1763467;80;20989;-76
2021/01/15 08:14:16;;;;;;;22.25;8.65;;;;;;;-7.96;70.20;98675.98;1761041;81;21021;-77
2021/01/15 08:16:45;;;;;;;31.30;10.88;;;;;;;-8.00;70.46;98680.42;1761067;81;21035;-77
2021/01/15 08:19:16;;;;;;;20.65;8.85;;;;;;;-7.99;70.39;98683.38;1760977;81;22215;-76
2021/01/15 08:21:45;;;;;;;19.67;8.38;;;;;;;-7.91;71.20;98684.97;1760987;81;20934;-77
2021/01/15 08:24:13;;;;;;;24.85;9.73;;;;;;;-7.80;71.48;98686.10;1760991;81;20924;-75
2021/01/15 08:26:51;;;;;;;20.57;8.50;;;;;;;-7.82;71.20;98688.98;1764367;80;21120;-74
2021/01/15 08:29:23;;;;;;;20.12;8.05;;;;;;;-7.84;71.43;98695.05;1779507;80;21131;-72
2021/01/15 08:31:57;;;;;;;22.70;8.15;;;;;;;-7.80;72.43;98701.58;1774699;80;21365;-73
2021/01/15 08:34:31;;;;;;;21.05;7.47;;;;;;;-7.72;72.18;98702.63;1774086;80;21665;-75
2021/01/15 08:37:00;;;;;;;18.32;7.47;;;;;;;-7.60;70.83;98700.58;1773833;79;21155;-74
2021/01/15 08:39:28;;;;;;;19.25;8.00;;;;;;;-7.60;70.93;98704.06;1776124;79;21024;-75
2021/01/15 08:41:59;;;;;;;21.20;8.28;;;;;;;-7.60;70.66;98706.73;1776406;80;21159;-76
2021/01/15 08:44:36;;;;;;;27.33;11.43;;;;;;;-7.60;70.93;98698.73;1774113;80;21199;-77
2021/01/15 08:47:06;;;;;;;31.50;11.80;;;;;;;-7.53;70.74;98695.49;1774100;80;21033;-73
2021/01/15 08:49:34;;;;;;;21.02;8.45;;;;;;;-7.42;71.03;98697.92;1775476;80;21037;-73
2021/01/15 08:52:02;;;;;;;15.50;7.08;;;;;;;-7.33;70.02;98692.59;1777676;80;21535;-74
2021/01/15 08:54:31;;;;;;;20.65;7.08;;;;;;;-7.31;69.29;98701.19;1775701;80;21095;-75
2021/01/15 08:57:00;;;;;;;24.32;8.43;;;;;;;-7.29;69.30;98703.12;1774465;80;21607;-74
2021/01/15 08:59:30;;;;;;;21.62;8.43;;;;;;;-7.28;69.72;98711.41;1776624;80;21112;-74
2021/01/15 09:02:03;;;;;;;22.70;9.33;;;;;;;-7.20;70.19;98711.64;1777368;80;21135;-73
2021/01/15 09:04:35;;;;;;;19.48;8.38;;;;;;;-7.19;69.42;98715.94;1777599;80;21120;-73
2021/01/15 09:07:05;;;;;;;20.62;7.70;;;;;;;-7.19;69.72;98719.42;1777341;80;21091;-75
2021/01/15 09:09:35;;;;;;;23.40;9.30;;;;;;;-7.13;69.21;98717.73;1778332;80;21196;-75
2021/01/15 09:12:07;;;;;;;22.30;8.50;;;;;;;-7.13;69.74;98719.06;1777736;80;21140;-73
2021/01/15 09:14:36;;;;;;;;;;;;;;;-7.15;68.46;98721.13;1777329;80;21579;-71
2021/01/15 09:17:06;;;;;;;24.77;9.63;;;;;;;-7.31;68.19;98718.52;1777459;80;20235;-73
2021/01/15 09:19:35;;;;;;;24.15;9.05;;;;;;;-7.38;69.44;98719.92;1775349;80;21064;-74
2021/01/15 09:24:43;;;;;;;42.93;15.45;;;;;;;-7.10;69.69;98711.95;1862906;76;22732;-73
2021/01/15 09:27:15;;;;;;;22.10;9.30;;;;;;;-7.10;67.94;98723.95;1839675;77;20997;-74
2021/01/15 09:29:43;;;;;;;16.65;7.55;;;;;;;-7.17;66.83;98717.88;1807165;77;22270;-77
2021/01/15 09:32:13;;;;;;;19.05;8.45;;;;;;;-7.17;67.04;98716.53;1799276;78;20986;-71
2021/01/15 09:34:41;;;;;;;17.98;6.95;;;;;;;-7.18;66.31;98713.58;1790870;80;20906;-74
2021/01/15 09:37:09;;;;;;;30.10;8.95;;;;;;;-7.23;64.81;98716.91;1790815;80;21576;-70
2021/01/15 09:39:37;;;;;;;22.45;8.93;;;;;;;-7.37;66.34;98720.73;1789734;78;20981;-72
2021/01/15 09:42:05;;;;;;;25.30;8.90;;;;;;;-7.53;66.35;98720.81;1820164;78;21810;-71
2021/01/15 09:44:33;;;;;;;21.23;8.20;;;;;;;-7.70;67.41;98722.41;1823097;78;20949;-75
2021/01/15 09:47:02;;;;;;;19.37;7.78;;;;;;;-7.79;68.46;98727.70;1823205;78;20926;-74
2021/01/15 09:49:33;;;;;;;21.20;7.97;;;;;;;-7.84;69.54;98727.54;1823306;78;21461;-71
2021/01/15 09:52:05;;;;;;;22.05;8.95;;;;;;;-7.77;70.52;98727.78;1823274;78;20911;-73
2021/01/15 09:54:39;;;;;;;21.40;8.50;;;;;;;-7.60;70.88;98728.57;1823161;78;21361;-74
2021/01/15 09:57:07;;;;;;;19.15;8.28;;;;;;;-7.52;70.63;98723.78;1806631;78;20961;-78
2021/01/15 09:59:35;;;;;;;20.85;8.50;;;;;;;-7.49;71.58;98727.83;1808942;78;21333;-79
2021/01/15 10:02:05;;;;;;;22.82;9.95;;;;;;;-7.50;71.39;98728.34;1818056;78;21038;-80
2021/01/15 10:04:34;;;;;;;25.32;8.98;;;;;;;-7.44;72.18;98727.98;1812006;78;21121;-78
2021/01/15 10:07:02;;;;;;;32.70;11.97;;;;;;;-7.40;72.06;98733.17;1812172;78;21617;-74
2021/01/15 10:09:29;;;;;;;24.65;9.85;;;;;;;-7.37;72.36;98722.89;1802179;78;20957;-72
2021/01/15 10:11:57;;;;;;;28.50;9.70;;;;;;;-7.30;71.58;98723.34;1813468;78;21116;-71
2021/01/15 10:14:26;;;;;;;25.20;10.20;;;;;;;-7.32;70.91;98723.56;1821111;78;21140;-72
2021/01/15 10:16:53;;;;;;;24.30;8.75;;;;;;;-7.25;72.22;98728.31;1817633;78;21589;-72
2021/01/15 10:19:22;;;;;;;33.38;12.43;;;;;;;-7.11;72.05;98729.80;1805134;78;21656;-71
2021/01/15 10:21:51;;;;;;;20.20;8.60;;;;;;;-6.89;73.12;98732.00;1822789;78;21537;-71
2021/01/15 10:24:19;;;;;;;19.42;7.12;;;;;;;-6.70;71.26;98730.44;1781435;80;21033;-73
2021/01/15 10:26:47;;;;;;;28.87;9.18;;;;;;;-6.50;70.34;98723.52;1755403;81;21556;-74
2021/01/15 10:29:14;;;;;;;16.80;7.33;;;;;;;-6.13;68.84;98718.05;1786619;80;21651;-73
2021/01/15 10:31:56;;;;;;;16.48;6.58;;;;;;;-5.62;64.58;98720.58;1756047;80;21880;-73
2021/01/15 10:34:24;;;;;;;15.38;6.33;;;;;;;-5.13;62.49;98708.58;1786572;80;20942;-75
2021/01/15 10:36:52;;;;;;;16.90;6.78;;;;;;;-4.63;62.27;98709.35;1742490;81;21753;-79
2021/01/15 10:39:21;;;;;;;17.27;6.55;;;;;;;-4.25;59.80;98711.39;1727271;81;20962;-77
2021/01/15 10:41:51;;;;;;;17.95;7.20;;;;;;;-4.13;56.18;98712.16;1754792;81;21147;-75
2021/01/15 10:44:20;;;;;;;17.75;7.83;;;;;;;-4.29;55.69;98721.78;1744846;81;21223;-77
2021/01/15 10:46:52;;;;;;;19.23;7.87;;;;;;;-4.61;56.60;98725.44;1757721;81;20994;-73
2021/01/15 10:49:23;;;;;;;14.25;6.08;;;;;;;-4.98;55.89;98718.27;1758543;81;21023;-74
2021/01/15 10:51:54;;;;;;;18.52;7.80;;;;;;;-5.47;57.11;98724.95;1758567;81;21546;-75
2021/01/15 10:54:23;;;;;;;16.95;7.20;;;;;;;-5.85;58.60;98726.73;1789413;80;20948;-78
2021/01/15 10:56:52;;;;;;;15.63;6.12;;;;;;;-6.07;59.17;98708.59;1789306;80;21427;-76
2021/01/15 10:59:21;;;;;;;21.45;8.03;;;;;;;-6.28;59.02;98714.97;1775784;80;21051;-74
2021/01/15 11:01:51;;;;;;;12.37;6.05;;;;;;;-6.50;59.36;98717.36;1758033;80;20990;-74
2021/01/15 11:04:21;;;;;;;17.05;6.42;;;;;;;-6.71;60.11;98714.13;1785556;80;21174;-72
2021/01/15 11:06:54;;;;;;;15.35;6.83;;;;;;;-6.85;61.63;98726.52;1776277;80;21113;-72
2021/01/15 11:09:24;;;;;;;19.48;7.87;;;;;;;-7.02;62.38;98729.81;1756384;81;21139;-72
2021/01/15 11:11:53;;;;;;;17.73;7.55;;;;;;;-7.22;64.14;98728.39;1754670;81;21601;-75
2021/01/15 11:14:20;;;;;;;21.77;6.67;;;;;;;-7.51;66.24;98731.26;1753167;81;21051;-74
2021/01/15 11:16:48;;;;;;;15.23;6.17;;;;;;;-7.84;68.65;98727.02;1731484;81;21149;-71
2021/01/15 11:19:15;;;;;;;14.13;6.37;;;;;;;-8.09;70.95;98729.69;1763627;81;21194;-78
2021/01/15 11:21:43;;;;;;;16.23;6.30;;;;;;;-8.22;72.00;98727.11;1763709;81;22293;-72
2021/01/15 11:24:11;;;;;;;16.45;7.15;;;;;;;-8.20;73.23;98736.22;1768637;81;20911;-71
2021/01/15 11:26:39;;;;;;;15.23;6.40;;;;;;;-8.14;73.17;98732.70;1773230;81;21241;-75
2021/01/15 11:29:08;;;;;;;15.20;6.05;;;;;;;-8.00;73.40;98736.36;1771042;81;21097;-77
2021/01/15 11:31:38;;;;;;;17.98;6.65;;;;;;;-7.81;72.72;98735.09;1733764;82;21616;-81
2021/01/15 11:34:06;;;;;;;13.03;6.05;;;;;;;-7.70;71.37;98731.21;1694545;83;21372;-82
2021/01/15 11:36:34;;;;;;;15.83;5.42;;;;;;;-7.61;69.95;98739.75;1720711;83;21109;-78
2021/01/15 11:39:10;;;;;;;18.57;5.70;;;;;;;-7.67;67.54;98734.77;1720132;83;21010;-73
2021/01/15 11:41:38;;;;;;;15.75;5.03;;;;;;;-7.84;67.44;98734.20;1733096;81;21199;-78
2021/01/15 11:44:12;;;;;;;13.72;5.53;;;;;;;-7.89;67.10;98740.69;1750349;81;21137;-75
2021/01/15 11:46:42;;;;;;;13.60;5.67;;;;;;;-7.71;66.74;98741.57;1734776;81;21642;-74
2021/01/15 11:49:15;;;;;;;10.65;5.00;;;;;;;-7.38;66.54;98737.25;1732138;82;21090;-74